createdAt,value
2017-11-27T00:01:01.417Z,68.60
2017-11-27T00:03:28.938Z,68.50
2017-11-27T00:05:56.479Z,68.30
2017-11-27T00:08:24.006Z,66.70
2017-11-27T00:10:53.861Z,67.90
2017-11-27T00:13:21.411Z,67.90
2017-11-27T00:15:48.925Z,67.80
2017-11-27T00:18:16.490Z,67.90
2017-11-27T00:20:44.771Z,69.40
2017-11-27T00:23:13.059Z,69.20
2017-11-27T00:25:41.372Z,69.20
2017-11-27T00:28:08.880Z,69.20
2017-11-27T00:30:37.183Z,67.50
2017-11-27T00:33:04.693Z,67.40
2017-11-27T00:35:32.240Z,67.60
2017-11-27T00:37:59.782Z,68.90
2017-11-27T00:40:27.313Z,68.20
2017-11-27T00:42:54.827Z,68.70
2017-11-27T00:45:23.137Z,68.40
2017-11-27T00:47:50.683Z,68.20
2017-11-27T00:50:18.236Z,68.50
2017-11-27T00:52:45.762Z,68.50
2017-11-27T00:55:13.292Z,68.00
2017-11-27T00:57:40.800Z,68.20
2017-11-27T01:00:09.070Z,68.60
2017-11-27T01:02:37.374Z,68.60
2017-11-27T01:05:04.874Z,68.60
2017-11-27T01:07:32.391Z,68.60
2017-11-27T01:09:59.914Z,68.70
2017-11-27T01:12:28.194Z,68.50
2017-11-27T01:14:56.589Z,68.60
2017-11-27T01:17:24.097Z,68.50
2017-11-27T01:19:51.606Z,68.70
2017-11-27T01:22:19.122Z,68.80
2017-11-27T01:24:46.625Z,68.90
2017-11-27T01:27:14.125Z,68.60
2017-11-27T01:29:41.642Z,68.90
2017-11-27T01:32:09.149Z,68.60
2017-11-27T01:34:36.646Z,69.10
2017-11-27T01:37:04.194Z,69.90
2017-11-27T01:39:31.699Z,69.60
2017-11-27T01:41:59.218Z,70.40
2017-11-27T01:44:26.735Z,70.20
2017-11-27T01:46:54.242Z,70.50
2017-11-27T01:49:21.770Z,69.60
2017-11-27T01:51:50.047Z,69.30
2017-11-27T01:54:18.335Z,69.10
2017-11-27T01:56:45.848Z,69.10
2017-11-27T01:59:13.346Z,68.70
2017-11-27T02:01:40.866Z,69.00
2017-11-27T02:04:08.383Z,68.70
2017-11-27T02:06:35.898Z,68.50
2017-11-27T02:09:04.190Z,69.00
2017-11-27T02:11:31.689Z,69.00
2017-11-27T02:13:59.194Z,68.80
2017-11-27T02:16:27.482Z,68.50
2017-11-27T02:18:54.997Z,68.50
2017-11-27T02:21:22.501Z,69.20
2017-11-27T02:23:50.023Z,69.10
2017-11-27T02:26:17.528Z,69.20
2017-11-27T02:28:45.037Z,69.40
2017-11-27T02:31:12.613Z,68.80
2017-11-27T02:33:40.105Z,68.70
2017-11-27T02:36:07.623Z,67.70
2017-11-27T02:38:35.937Z,68.00
2017-11-27T02:41:03.449Z,68.00
2017-11-27T02:43:31.742Z,67.50
2017-11-27T02:45:59.251Z,67.50
2017-11-27T02:48:26.776Z,66.10
2017-11-27T02:50:54.295Z,67.40
2017-11-27T02:53:22.569Z,67.10
2017-11-27T02:55:50.847Z,67.20
2017-11-27T02:58:19.143Z,67.50
2017-11-27T03:00:46.658Z,67.50
2017-11-27T03:03:14.166Z,68.30
2017-11-27T03:05:41.686Z,68.10
2017-11-27T03:08:09.191Z,67.40
2017-11-27T03:10:36.696Z,68.40
2017-11-27T03:13:04.217Z,66.90
2017-11-27T03:15:31.722Z,67.10
2017-11-27T03:18:00.007Z,67.60
2017-11-27T03:20:27.534Z,67.60
2017-11-27T03:22:55.045Z,68.20
2017-11-27T03:25:22.551Z,68.40
2017-11-27T03:27:50.094Z,68.30
2017-11-27T03:30:17.608Z,68.60
2017-11-27T03:32:45.122Z,68.80
2017-11-27T03:35:12.653Z,68.40
2017-11-27T03:37:40.185Z,68.60
2017-11-27T03:40:07.690Z,68.70
2017-11-27T03:42:35.223Z,68.20
2017-11-27T03:45:02.744Z,68.20
2017-11-27T03:47:30.262Z,68.40
2017-11-27T03:49:57.759Z,68.40
2017-11-27T03:52:25.257Z,68.50
2017-11-27T03:54:52.782Z,68.50
2017-11-27T03:57:20.291Z,68.90
2017-11-27T03:59:47.803Z,69.30
2017-11-27T04:02:15.346Z,68.70
2017-11-27T04:04:42.851Z,68.50
2017-11-27T04:07:11.136Z,68.90
2017-11-27T04:09:38.654Z,68.90
2017-11-27T04:12:06.158Z,69.30
2017-11-27T04:14:33.649Z,69.80
2017-11-27T04:17:01.171Z,70.30
2017-11-27T04:19:28.709Z,70.30
2017-11-27T04:21:56.198Z,69.70
2017-11-27T04:24:23.700Z,70.50
2017-11-27T04:26:51.220Z,70.80
2017-11-27T04:29:19.477Z,69.60
2017-11-27T04:31:47.009Z,69.50
2017-11-27T04:34:14.495Z,69.20
2017-11-27T04:36:42.769Z,69.10
2017-11-27T04:39:11.068Z,68.10
2017-11-27T04:41:38.575Z,68.00
2017-11-27T04:44:06.091Z,68.00
2017-11-27T04:46:33.581Z,68.10
2017-11-27T04:49:01.092Z,68.10
2017-11-27T04:51:28.587Z,67.80
2017-11-27T04:53:56.083Z,68.20
2017-11-27T04:56:24.353Z,68.60
2017-11-27T04:58:52.623Z,68.80
2017-11-27T05:01:20.172Z,68.80
2017-11-27T05:03:47.665Z,69.00
2017-11-27T05:06:15.162Z,68.40
2017-11-27T05:08:42.778Z,68.30
2017-11-27T05:11:11.045Z,67.70
2017-11-27T05:13:39.313Z,68.00
2017-11-27T05:16:07.597Z,68.00
2017-11-27T05:18:35.862Z,67.50
2017-11-27T05:21:04.149Z,68.30
2017-11-27T05:23:32.426Z,68.30
2017-11-27T05:25:59.917Z,68.30
2017-11-27T05:28:27.408Z,68.10
2017-11-27T05:30:54.921Z,68.20
2017-11-27T05:33:22.428Z,68.70
2017-11-27T05:35:50.696Z,68.10
2017-11-27T05:38:18.214Z,68.00
2017-11-27T05:40:45.707Z,68.60
2017-11-27T05:43:13.193Z,68.50
2017-11-27T05:45:41.476Z,68.90
2017-11-27T05:48:08.984Z,68.90
2017-11-27T05:50:36.492Z,68.80
2017-11-27T05:53:03.998Z,68.80
2017-11-27T05:55:31.601Z,69.00
2017-11-27T05:57:59.868Z,67.90
2017-11-27T06:00:28.140Z,68.70
2017-11-27T06:02:56.435Z,68.80
2017-11-27T06:05:23.929Z,68.90
2017-11-27T06:07:51.425Z,69.20
2017-11-27T06:10:19.701Z,68.50
2017-11-27T06:12:47.967Z,67.90
2017-11-27T06:15:15.485Z,67.80
2017-11-27T06:17:43.002Z,68.20
2017-11-27T06:20:10.497Z,68.20
2017-11-27T06:22:37.994Z,67.70
2017-11-27T06:25:05.502Z,67.40
2017-11-27T06:27:32.992Z,67.70
2017-11-27T06:30:00.490Z,68.20
2017-11-27T06:32:27.997Z,68.10
2017-11-27T06:34:55.522Z,68.40
2017-11-27T06:37:23.021Z,67.80
2017-11-27T06:39:51.297Z,66.90
2017-11-27T06:42:18.804Z,66.80
2017-11-27T06:44:47.107Z,66.80
2017-11-27T06:47:14.620Z,66.90
2017-11-27T06:49:42.905Z,67.50
2017-11-27T06:52:10.406Z,67.50
2017-11-27T06:54:40.667Z,66.70
2017-11-27T06:57:08.990Z,66.90
2017-11-27T06:59:36.508Z,66.90
2017-11-27T07:02:04.120Z,65.60
2017-11-27T07:04:31.604Z,66.80
2017-11-27T07:06:59.872Z,66.90
2017-11-27T07:09:28.246Z,66.70
2017-11-27T07:11:55.741Z,66.20
2017-11-27T07:14:23.243Z,66.40
2017-11-27T07:16:50.748Z,66.20
2017-11-27T07:19:18.275Z,66.60
2017-11-27T07:21:45.817Z,66.30
2017-11-27T07:24:13.306Z,66.40
2017-11-27T07:26:41.578Z,67.00
2017-11-27T07:29:09.874Z,66.70
2017-11-27T07:31:37.366Z,66.70
2017-11-27T07:34:04.863Z,67.10
2017-11-27T07:36:33.144Z,67.30
2017-11-27T07:39:07.015Z,67.60
2017-11-27T07:41:34.541Z,67.60
2017-11-27T07:44:02.039Z,67.10
2017-11-27T07:46:29.524Z,66.20
2017-11-27T07:48:57.031Z,67.30
2017-11-27T07:51:24.540Z,67.10
2017-11-27T07:53:52.803Z,67.50
2017-11-27T07:56:21.090Z,68.30
2017-11-27T07:58:48.610Z,67.90
2017-11-27T08:01:16.116Z,66.90
2017-11-27T08:03:43.624Z,66.80
2017-11-27T08:06:11.117Z,66.80
2017-11-27T08:08:39.382Z,67.60
2017-11-27T08:11:07.660Z,68.40
2017-11-27T08:13:35.919Z,68.10
2017-11-27T08:16:03.445Z,68.10
2017-11-27T08:18:30.961Z,67.20
2017-11-27T08:20:58.464Z,67.40
2017-11-27T08:23:25.975Z,67.20
2017-11-27T08:25:53.491Z,67.80
2017-11-27T08:28:21.010Z,67.60
2017-11-27T08:30:48.552Z,67.90
2017-11-27T08:33:17.861Z,68.60
2017-11-27T08:35:45.361Z,69.10
2017-11-27T08:38:12.885Z,68.00
2017-11-27T08:40:40.376Z,68.60
2017-11-27T08:43:07.877Z,68.40
2017-11-27T08:45:35.398Z,68.30
2017-11-27T08:48:02.917Z,68.40
2017-11-27T08:50:31.005Z,69.20
2017-11-27T08:52:58.564Z,69.10
2017-11-27T08:55:26.068Z,69.00
2017-11-27T08:57:53.556Z,67.50
2017-11-27T09:00:21.106Z,68.00
2017-11-27T09:02:48.609Z,68.20
2017-11-27T09:05:16.104Z,68.70
2017-11-27T09:07:43.625Z,68.40
2017-11-27T09:10:11.112Z,68.70
2017-11-27T09:12:38.615Z,68.90
2017-11-27T09:15:06.177Z,68.20
2017-11-27T09:17:33.689Z,67.90
2017-11-27T09:20:01.185Z,67.60
2017-11-27T09:22:28.702Z,68.80
2017-11-27T09:24:56.192Z,68.40
2017-11-27T09:27:23.691Z,67.60
2017-11-27T09:29:52.065Z,67.50
2017-11-27T09:32:20.345Z,68.00
2017-11-27T09:34:47.900Z,67.90
2017-11-27T09:37:15.545Z,68.00
2017-11-27T09:39:43.037Z,67.90
2017-11-27T09:42:10.553Z,67.90
2017-11-27T09:44:38.930Z,68.00
2017-11-27T09:47:06.429Z,67.70
2017-11-27T09:49:33.928Z,67.10
2017-11-27T09:52:01.437Z,67.50
2017-11-27T09:54:28.936Z,67.70
2017-11-27T09:56:56.432Z,68.30
2017-11-27T09:59:23.964Z,68.50
2017-11-27T10:01:51.455Z,67.60
2017-11-27T10:04:19.719Z,67.60
2017-11-27T10:06:47.249Z,67.60
2017-11-27T10:09:14.766Z,67.00
2017-11-27T10:11:42.257Z,68.10
2017-11-27T10:14:09.798Z,67.30
2017-11-27T10:16:37.296Z,67.90
2017-11-27T10:19:04.788Z,66.50
2017-11-27T10:21:32.306Z,67.10
2017-11-27T10:23:59.815Z,66.20
2017-11-27T10:26:27.307Z,66.90
2017-11-27T10:28:55.380Z,67.60
2017-11-27T10:31:23.687Z,66.60
2017-11-27T10:33:51.196Z,67.20
2017-11-27T10:36:19.549Z,66.50
2017-11-27T10:38:47.041Z,66.60
2017-11-27T10:41:14.552Z,65.40
2017-11-27T10:43:42.083Z,64.90
2017-11-27T10:46:10.418Z,65.70
2017-11-27T10:48:37.928Z,65.70
2017-11-27T10:51:06.208Z,66.00
2017-11-27T10:53:33.737Z,66.00
2017-11-27T10:56:01.245Z,64.60
2017-11-27T10:58:28.758Z,64.40
2017-11-27T11:01:11.031Z,64.40
2017-11-27T11:03:39.381Z,64.10
2017-11-27T11:06:06.873Z,63.20
2017-11-27T11:08:34.403Z,62.90
2017-11-27T11:11:01.911Z,63.80
2017-11-27T11:13:29.412Z,64.20
2017-11-27T11:15:56.950Z,63.10
2017-11-27T11:18:24.448Z,62.60
2017-11-27T11:20:51.972Z,63.70
2017-11-27T11:23:19.501Z,64.60
2017-11-27T11:25:47.763Z,63.00
2017-11-27T11:28:15.268Z,62.90
2017-11-27T11:30:42.799Z,63.20
2017-11-27T11:33:11.062Z,61.80
2017-11-27T11:35:38.548Z,61.90
2017-11-27T11:38:06.065Z,61.90
2017-11-27T11:40:33.582Z,62.40
2017-11-27T11:43:01.840Z,61.70
2017-11-27T11:45:29.369Z,61.70
2017-11-27T11:47:57.633Z,61.30
2017-11-27T11:50:25.904Z,60.90
2017-11-27T11:52:53.438Z,60.50
2017-11-27T11:55:20.938Z,60.30
2017-11-27T11:57:49.223Z,59.60
2017-11-27T12:00:16.752Z,59.60
2017-11-27T12:02:44.341Z,59.40
2017-11-27T12:05:12.630Z,59.20
2017-11-27T12:07:40.249Z,59.20
2017-11-27T12:10:07.739Z,60.20
2017-11-27T12:12:35.241Z,60.20
2017-11-27T12:15:02.751Z,61.20
2017-11-27T12:17:30.320Z,59.50
2017-11-27T12:19:57.864Z,60.90
2017-11-27T12:22:25.378Z,61.10
2017-11-27T12:24:52.892Z,60.80
2017-11-27T12:27:20.404Z,62.90
2017-11-27T12:29:47.932Z,61.30
2017-11-27T12:32:15.536Z,62.60
2017-11-27T12:34:43.828Z,62.70
2017-11-27T12:37:11.329Z,62.70
2017-11-27T12:39:41.379Z,63.30
2017-11-27T12:42:08.944Z,63.30
2017-11-27T12:44:37.227Z,63.50
2017-11-27T12:47:05.516Z,62.50
2017-11-27T12:49:33.037Z,63.20
2017-11-27T12:52:00.535Z,64.10
2017-11-27T12:54:28.044Z,64.60
2017-11-27T12:56:55.542Z,64.80
2017-11-27T12:59:23.157Z,65.40
2017-11-27T13:01:51.441Z,65.20
2017-11-27T13:04:18.971Z,65.20
2017-11-27T13:06:46.489Z,65.90
2017-11-27T13:09:14.002Z,64.60
2017-11-27T13:11:42.409Z,65.70
2017-11-27T13:14:10.674Z,65.00
2017-11-27T13:16:38.949Z,63.50
2017-11-27T13:19:07.227Z,66.10
2017-11-27T13:21:35.509Z,65.60
2017-11-27T13:24:03.909Z,65.90
2017-11-27T13:26:31.429Z,65.90
2017-11-27T13:28:58.928Z,66.40
2017-11-27T13:31:26.460Z,65.30
2017-11-27T13:33:53.970Z,65.30
2017-11-27T13:36:21.461Z,66.80
2017-11-27T13:38:48.969Z,66.00
2017-11-27T13:41:16.456Z,66.10
2017-11-27T13:43:43.975Z,66.20
2017-11-27T13:46:11.473Z,66.40
2017-11-27T13:48:38.979Z,66.40
2017-11-27T13:51:06.503Z,66.70
2017-11-27T13:53:34.009Z,66.20
2017-11-27T13:56:01.645Z,66.10
2017-11-27T13:58:29.170Z,67.90
2017-11-27T14:00:57.475Z,67.80
2017-11-27T14:03:24.984Z,67.70
2017-11-27T14:05:52.480Z,66.30
2017-11-27T14:08:20.744Z,67.50
2017-11-27T14:10:49.055Z,66.80
2017-11-27T14:13:16.561Z,66.80
2017-11-27T14:15:44.057Z,66.50
2017-11-27T14:18:11.635Z,67.50
2017-11-27T14:20:39.125Z,67.20
2017-11-27T14:23:06.632Z,66.10
2017-11-27T14:25:34.146Z,66.30
2017-11-27T14:28:02.340Z,67.50
2017-11-27T14:30:30.629Z,67.20
2017-11-27T14:32:58.147Z,67.20
2017-11-27T14:35:25.646Z,66.80
2017-11-27T14:37:53.137Z,67.30
2017-11-27T14:40:20.765Z,66.20
2017-11-27T14:42:48.267Z,66.80
2017-11-27T14:45:15.779Z,68.50
2017-11-27T14:47:43.303Z,67.60
2017-11-27T14:50:10.805Z,67.10
2017-11-27T14:52:38.336Z,67.80
2017-11-27T14:55:06.646Z,67.30
2017-11-27T14:57:34.148Z,67.30
2017-11-27T15:00:01.646Z,67.70
2017-11-27T15:02:29.177Z,66.80
2017-11-27T15:04:58.105Z,67.30
2017-11-27T15:07:25.602Z,67.30
2017-11-27T15:09:53.465Z,68.10
2017-11-27T15:12:21.763Z,67.00
2017-11-27T15:14:50.025Z,68.30
2017-11-27T15:17:18.310Z,67.30
2017-11-27T15:19:46.585Z,67.80
2017-11-27T15:22:14.852Z,68.00
2017-11-27T15:24:43.139Z,67.90
2017-11-27T15:27:11.399Z,68.20
2017-11-27T15:29:38.937Z,68.20
2017-11-27T15:32:06.478Z,67.50
2017-11-27T15:34:34.037Z,68.10
2017-11-27T15:37:02.131Z,68.50
2017-11-27T15:39:29.638Z,68.50
2017-11-27T15:41:57.208Z,68.00
2017-11-27T15:44:24.741Z,67.40
2017-11-27T15:46:52.253Z,67.30
2017-11-27T15:49:19.799Z,68.40
2017-11-27T15:51:47.314Z,68.30
2017-11-27T15:57:47.703Z,67.90
2017-11-27T16:00:16.274Z,67.90
2017-11-27T16:02:44.574Z,67.80
2017-11-27T16:05:12.089Z,67.80
2017-11-27T16:07:44.251Z,67.40
2017-11-27T16:10:17.230Z,67.70
2017-11-27T16:12:48.564Z,67.40
2017-11-27T16:15:20.613Z,67.20
2017-11-27T16:17:50.708Z,67.50
2017-11-27T16:26:24.988Z,67.50
2017-11-27T16:34:33.226Z,67.30
2017-11-27T16:37:01.501Z,67.10
2017-11-27T16:39:29.838Z,67.30
2017-11-27T16:41:57.339Z,67.30
2017-11-27T16:44:25.597Z,67.50
2017-11-27T16:46:53.906Z,67.60
2017-11-27T16:49:21.425Z,67.60
2017-11-27T16:51:48.954Z,66.90
2017-11-27T16:54:16.465Z,67.00
2017-11-27T16:56:44.740Z,67.60
2017-11-27T16:59:13.001Z,67.60
2017-11-27T17:01:41.290Z,67.50
2017-11-27T17:04:08.803Z,67.50
2017-11-27T17:06:36.307Z,66.80
2017-11-27T17:09:03.847Z,66.90
2017-11-27T17:11:32.102Z,67.80
2017-11-27T17:13:59.611Z,67.80
2017-11-27T17:16:27.134Z,66.80
2017-11-27T17:18:55.415Z,67.10
2017-11-27T17:21:22.976Z,67.10
2017-11-27T17:23:51.262Z,67.00
2017-11-27T17:26:18.764Z,67.00
2017-11-27T17:28:46.729Z,67.10
2017-11-27T17:31:14.244Z,67.10
2017-11-27T17:33:41.754Z,67.50
2017-11-27T17:36:10.047Z,67.50
2017-11-27T17:38:37.587Z,67.50
2017-11-27T17:41:05.157Z,67.70
2017-11-27T17:43:32.688Z,67.70
2017-11-27T17:46:00.313Z,66.50
2017-11-27T17:48:27.839Z,66.30
2017-11-27T17:50:55.362Z,65.60
2017-11-27T17:53:22.860Z,67.10
2017-11-27T17:55:51.138Z,66.80
2017-11-27T17:58:19.432Z,67.40
2017-11-27T18:00:46.948Z,67.40
2017-11-27T18:03:14.459Z,66.70
2017-11-27T18:05:41.992Z,66.10
2017-11-27T18:08:10.244Z,66.70
2017-11-27T18:10:37.745Z,66.70
2017-11-27T18:13:05.371Z,67.00
2017-11-27T18:15:33.647Z,67.50
2017-11-27T18:18:01.917Z,66.90
2017-11-27T18:20:30.213Z,67.50
2017-11-27T18:22:57.728Z,66.90
2017-11-27T18:25:25.232Z,66.80
2017-11-27T18:27:52.753Z,67.30
2017-11-27T18:30:20.270Z,66.80
2017-11-27T18:32:47.781Z,67.20
2017-11-27T18:35:16.087Z,67.50
2017-11-27T18:37:43.612Z,67.50
2017-11-27T18:40:11.886Z,67.30
2017-11-27T18:42:40.176Z,67.40
2017-11-27T18:45:07.852Z,67.40
2017-11-27T18:47:35.352Z,67.50
2017-11-27T18:50:02.877Z,67.20
2017-11-27T18:52:30.390Z,67.10
2017-11-27T18:54:58.699Z,66.80
2017-11-27T18:57:26.219Z,66.80
2017-11-27T18:59:53.743Z,67.20
2017-11-27T19:02:21.256Z,66.60
2017-11-27T19:04:48.793Z,66.20
2017-11-27T19:07:17.067Z,66.40
2017-11-27T19:09:45.371Z,66.30
2017-11-27T19:12:13.669Z,66.90
2017-11-27T19:14:41.188Z,66.80
2017-11-27T19:17:08.735Z,66.70
2017-11-27T19:19:36.995Z,66.80
2017-11-27T19:22:04.534Z,66.80
2017-11-27T19:24:32.084Z,66.60
2017-11-27T19:26:59.591Z,66.90
2017-11-27T19:29:27.861Z,67.10
2017-11-27T19:31:56.153Z,67.20
2017-11-27T19:34:23.665Z,67.20
2017-11-27T19:36:51.193Z,66.60
2017-11-27T19:39:18.752Z,66.30
2017-11-27T19:41:46.300Z,66.70
2017-11-27T19:44:13.877Z,66.30
2017-11-27T19:46:41.372Z,66.90
2017-11-27T19:49:09.680Z,67.10
2017-11-27T19:51:37.185Z,67.00
2017-11-27T19:54:04.720Z,67.50
2017-11-27T19:56:32.240Z,67.40
2017-11-27T19:58:59.758Z,67.40
2017-11-27T20:01:27.292Z,67.00
2017-11-27T20:03:54.795Z,66.70
2017-11-27T20:06:23.082Z,67.00
2017-11-27T20:08:50.613Z,67.00
2017-11-27T20:11:18.148Z,67.70
2017-11-27T20:13:45.723Z,68.20
2017-11-27T20:16:13.270Z,67.00
2017-11-27T20:18:40.774Z,67.20
2017-11-27T20:21:08.398Z,67.00
2017-11-27T20:23:37.370Z,67.20
2017-11-27T20:26:04.929Z,66.80
2017-11-27T20:28:32.435Z,66.60
2017-11-27T20:30:59.938Z,67.20
2017-11-27T20:33:27.509Z,66.90
2017-11-27T20:35:55.025Z,67.60
2017-11-27T20:38:22.571Z,67.40
2017-11-27T20:40:50.096Z,67.20
2017-11-27T20:43:17.616Z,67.20
2017-11-27T20:45:45.137Z,67.90
2017-11-27T20:48:13.526Z,67.90
2017-11-27T20:50:41.101Z,67.90
2017-11-27T20:53:08.774Z,67.60
2017-11-27T20:55:36.628Z,68.10
2017-11-27T20:58:04.383Z,68.30
2017-11-27T21:00:32.049Z,67.80
2017-11-27T21:02:59.801Z,68.30
2017-11-27T21:05:27.676Z,67.70
2017-11-27T21:10:46.155Z,68.20
2017-11-27T21:13:13.705Z,68.00
2017-11-27T21:15:42.048Z,68.60
2017-11-27T21:18:09.628Z,68.60
2017-11-27T21:20:37.125Z,68.80
2017-11-27T21:23:04.664Z,68.90
2017-11-27T21:25:32.194Z,68.60
2017-11-27T21:27:59.693Z,68.60
2017-11-27T21:30:27.236Z,68.40
2017-11-27T21:32:54.760Z,68.60
2017-11-27T21:35:22.294Z,69.00
2017-11-27T21:37:50.579Z,68.60
2017-11-27T21:40:18.887Z,68.90
2017-11-27T21:42:46.401Z,68.90
2017-11-27T21:45:14.677Z,68.90
2017-11-27T21:47:42.976Z,68.60
2017-11-27T21:50:10.494Z,68.60
2017-11-27T21:52:37.992Z,68.90
2017-11-27T21:55:05.525Z,68.60
2017-11-27T21:57:33.841Z,69.10
2017-11-27T22:00:01.389Z,69.10
2017-11-27T22:02:28.897Z,68.60
2017-11-27T22:04:56.428Z,68.60
2017-11-27T22:07:23.929Z,68.80
2017-11-27T22:09:52.227Z,69.10
2017-11-27T22:12:19.740Z,69.20
2017-11-27T22:14:47.264Z,69.50
2017-11-27T22:17:14.804Z,70.00
2017-11-27T22:19:42.341Z,69.80
2017-11-27T22:22:09.869Z,70.00
2017-11-27T22:24:37.374Z,70.10
2017-11-27T22:27:04.902Z,69.50
2017-11-27T22:29:33.182Z,69.60
2017-11-27T22:32:00.721Z,69.70
2017-11-27T22:34:28.253Z,69.40
2017-11-27T22:36:55.758Z,70.00
2017-11-27T22:39:24.062Z,69.90
2017-11-27T22:41:51.578Z,70.00
2017-11-27T22:44:19.896Z,69.80
2017-11-27T22:46:47.665Z,69.80
2017-11-27T22:49:15.361Z,69.70
2017-11-27T22:51:44.042Z,69.90
2017-11-27T22:54:12.527Z,70.60
2017-11-27T22:56:41.769Z,70.70
2017-11-27T22:59:09.496Z,70.70
2017-11-27T23:01:37.157Z,70.50
2017-11-27T23:04:04.997Z,70.70
2017-11-27T23:06:33.464Z,70.20
2017-11-27T23:09:01.188Z,70.30
2017-11-27T23:11:28.941Z,69.70
2017-11-27T23:13:56.739Z,69.60
2017-11-27T23:16:24.299Z,69.50
2017-11-27T23:18:51.807Z,70.20
2017-11-27T23:21:19.358Z,70.20
2017-11-27T23:23:47.642Z,70.10
2017-11-27T23:26:15.938Z,70.10
2017-11-27T23:28:43.454Z,70.10
2017-11-27T23:31:10.959Z,70.20
2017-11-27T23:33:38.490Z,69.90
2017-11-27T23:36:06.765Z,69.70
2017-11-27T23:38:35.049Z,69.70
2017-11-27T23:41:02.585Z,69.70
2017-11-27T23:43:30.078Z,70.10
2017-11-27T23:45:57.614Z,70.20
2017-11-27T23:48:25.124Z,69.90
2017-11-27T23:50:52.626Z,69.90
2017-11-27T23:53:20.921Z,69.40
2017-11-27T23:55:48.454Z,69.40
2017-11-27T23:58:16.759Z,70.00
